sensor_id;sensor_type;location;lat;lon;timestamp;temperature;humidity
52575;DHT22;38468;48.114;-1.684;2024-01-25T00:00:39;13.70;83.70
52575;DHT22;38468;48.114;-1.684;2024-01-25T00:02:40;13.70;83.80
52575;DHT22;38468;48.114;-1.684;2024-01-25T00:04:41;13.70;83.80
52575;DHT22;38468;48.114;-1.684;2024-01-25T00:06:41;13.70;83.80
52575;DHT22;38468;48.114;-1.684;2024-01-25T00:08:42;13.70;83.80
52575;DHT22;38468;48.114;-1.684;2024-01-25T00:10:43;13.70;83.90
52575;DHT22;38468;48.114;-1.684;2024-01-25T00:12:43;13.60;83.90
52575;DHT22;38468;48.114;-1.684;2024-01-25T00:14:44;13.70;83.90
52575;DHT22;38468;48.114;-1.684;2024-01-25T00:16:45;13.60;83.90
52575;DHT22;38468;48.114;-1.684;2024-01-25T00:18:45;13.70;84.00
52575;DHT22;38468;48.114;-1.684;2024-01-25T00:20:46;13.60;84.00
52575;DHT22;38468;48.114;-1.684;2024-01-25T00:22:47;13.60;84.00
52575;DHT22;38468;48.114;-1.684;2024-01-25T00:24:47;13.70;84.00
52575;DHT22;38468;48.114;-1.684;2024-01-25T00:26:48;13.60;84.00
52575;DHT22;38468;48.114;-1.684;2024-01-25T00:28:48;13.60;84.00
52575;DHT22;38468;48.114;-1.684;2024-01-25T00:30:49;13.60;84.00
52575;DHT22;38468;48.114;-1.684;2024-01-25T00:32:50;13.60;84.10
52575;DHT22;38468;48.114;-1.684;2024-01-25T00:34:50;13.60;84.10
52575;DHT22;38468;48.114;-1.684;2024-01-25T00:36:51;13.50;84.10
52575;DHT22;38468;48.114;-1.684;2024-01-25T00:38:53;13.50;84.20
52575;DHT22;38468;48.114;-1.684;2024-01-25T00:40:54;13.50;84.10
52575;DHT22;38468;48.114;-1.684;2024-01-25T00:43:10;13.50;84.10
52575;DHT22;38468;48.114;-1.684;2024-01-25T00:45:12;13.50;84.10
52575;DHT22;38468;48.114;-1.684;2024-01-25T00:47:16;13.50;84.20
52575;DHT22;38468;48.114;-1.684;2024-01-25T00:49:17;13.60;84.20
52575;DHT22;38468;48.114;-1.684;2024-01-25T00:51:21;13.50;84.20
52575;DHT22;38468;48.114;-1.684;2024-01-25T00:53:24;13.60;84.20
52575;DHT22;38468;48.114;-1.684;2024-01-25T00:55:25;13.50;84.20
52575;DHT22;38468;48.114;-1.684;2024-01-25T00:57:27;13.50;84.20
52575;DHT22;38468;48.114;-1.684;2024-01-25T00:59:28;13.60;84.10
52575;DHT22;38468;48.114;-1.684;2024-01-25T01:01:30;13.60;84.10
52575;DHT22;38468;48.114;-1.684;2024-01-25T01:03:31;13.60;84.10
52575;DHT22;38468;48.114;-1.684;2024-01-25T01:05:32;13.60;84.10
52575;DHT22;38468;48.114;-1.684;2024-01-25T01:07:34;13.50;84.10
52575;DHT22;38468;48.114;-1.684;2024-01-25T01:09:35;13.60;84.10
52575;DHT22;38468;48.114;-1.684;2024-01-25T01:11:38;13.60;84.10
52575;DHT22;38468;48.114;-1.684;2024-01-25T01:13:39;13.50;84.10
52575;DHT22;38468;48.114;-1.684;2024-01-25T01:15:40;13.50;84.20
52575;DHT22;38468;48.114;-1.684;2024-01-25T01:17:41;13.50;84.10
52575;DHT22;38468;48.114;-1.684;2024-01-25T01:19:41;13.50;84.20
52575;DHT22;38468;48.114;-1.684;2024-01-25T01:21:43;13.50;84.10
52575;DHT22;38468;48.114;-1.684;2024-01-25T01:23:44;13.50;84.10
52575;DHT22;38468;48.114;-1.684;2024-01-25T01:25:45;13.60;84.10
52575;DHT22;38468;48.114;-1.684;2024-01-25T01:27:46;13.60;84.10
52575;DHT22;38468;48.114;-1.684;2024-01-25T01:29:47;13.60;84.10
52575;DHT22;38468;48.114;-1.684;2024-01-25T01:31:48;13.60;84.10
52575;DHT22;38468;48.114;-1.684;2024-01-25T01:33:49;13.50;84.10
52575;DHT22;38468;48.114;-1.684;2024-01-25T01:35:49;13.60;84.10
52575;DHT22;38468;48.114;-1.684;2024-01-25T01:37:50;13.50;84.10
52575;DHT22;38468;48.114;-1.684;2024-01-25T01:39:51;13.50;84.00
52575;DHT22;38468;48.114;-1.684;2024-01-25T01:41:52;13.50;84.00
52575;DHT22;38468;48.114;-1.684;2024-01-25T01:43:54;13.50;84.10
52575;DHT22;38468;48.114;-1.684;2024-01-25T01:46:00;13.50;84.10
52575;DHT22;38468;48.114;-1.684;2024-01-25T01:48:05;13.50;84.00
52575;DHT22;38468;48.114;-1.684;2024-01-25T01:50:07;13.50;84.10
52575;DHT22;38468;48.114;-1.684;2024-01-25T01:52:09;13.50;84.10
52575;DHT22;38468;48.114;-1.684;2024-01-25T01:54:11;13.50;84.10
52575;DHT22;38468;48.114;-1.684;2024-01-25T01:56:17;13.50;84.00
52575;DHT22;38468;48.114;-1.684;2024-01-25T01:58:19;13.50;84.10
52575;DHT22;38468;48.114;-1.684;2024-01-25T02:00:21;13.50;84.10
52575;DHT22;38468;48.114;-1.684;2024-01-25T02:02:23;13.50;84.10
52575;DHT22;38468;48.114;-1.684;2024-01-25T02:04:24;13.50;84.10
52575;DHT22;38468;48.114;-1.684;2024-01-25T02:06:26;13.50;84.10
52575;DHT22;38468;48.114;-1.684;2024-01-25T02:08:29;13.50;84.10
52575;DHT22;38468;48.114;-1.684;2024-01-25T02:10:30;13.50;84.10
52575;DHT22;38468;48.114;-1.684;2024-01-25T02:12:31;13.50;84.10
52575;DHT22;38468;48.114;-1.684;2024-01-25T02:14:31;13.50;84.10
52575;DHT22;38468;48.114;-1.684;2024-01-25T02:16:32;13.50;84.10
52575;DHT22;38468;48.114;-1.684;2024-01-25T02:18:34;13.50;84.10
52575;DHT22;38468;48.114;-1.684;2024-01-25T02:20:35;13.50;84.10
52575;DHT22;38468;48.114;-1.684;2024-01-25T02:22:35;13.50;84.10
52575;DHT22;38468;48.114;-1.684;2024-01-25T02:24:36;13.50;84.10
52575;DHT22;38468;48.114;-1.684;2024-01-25T02:26:36;13.50;84.20
52575;DHT22;38468;48.114;-1.684;2024-01-25T02:28:37;13.50;84.10
52575;DHT22;38468;48.114;-1.684;2024-01-25T02:30:37;13.50;84.10
52575;DHT22;38468;48.114;-1.684;2024-01-25T02:32:38;13.50;84.20
52575;DHT22;38468;48.114;-1.684;2024-01-25T02:34:39;13.40;84.20
52575;DHT22;38468;48.114;-1.684;2024-01-25T02:36:39;13.40;84.20
52575;DHT22;38468;48.114;-1.684;2024-01-25T02:38:40;13.40;84.20
52575;DHT22;38468;48.114;-1.684;2024-01-25T02:40:40;13.40;84.20
52575;DHT22;38468;48.114;-1.684;2024-01-25T02:42:41;13.40;84.20
52575;DHT22;38468;48.114;-1.684;2024-01-25T02:44:42;13.40;84.20
52575;DHT22;38468;48.114;-1.684;2024-01-25T02:46:43;13.40;84.30
52575;DHT22;38468;48.114;-1.684;2024-01-25T02:48:45;13.40;84.30
52575;DHT22;38468;48.114;-1.684;2024-01-25T02:50:45;13.40;84.30
52575;DHT22;38468;48.114;-1.684;2024-01-25T02:52:46;13.40;84.30
52575;DHT22;38468;48.114;-1.684;2024-01-25T02:54:47;13.40;84.30
52575;DHT22;38468;48.114;-1.684;2024-01-25T02:56:48;13.40;84.30
52575;DHT22;38468;48.114;-1.684;2024-01-25T02:58:48;13.40;84.30
52575;DHT22;38468;48.114;-1.684;2024-01-25T03:00:49;13.40;84.30
52575;DHT22;38468;48.114;-1.684;2024-01-25T03:02:49;13.40;84.20
52575;DHT22;38468;48.114;-1.684;2024-01-25T03:04:50;13.40;84.30
52575;DHT22;38468;48.114;-1.684;2024-01-25T03:06:51;13.30;84.30
52575;DHT22;38468;48.114;-1.684;2024-01-25T03:08:51;13.30;84.40
52575;DHT22;38468;48.114;-1.684;2024-01-25T03:10:52;13.30;84.40
52575;DHT22;38468;48.114;-1.684;2024-01-25T03:12:53;13.30;84.40
52575;DHT22;38468;48.114;-1.684;2024-01-25T03:14:53;13.30;84.40
52575;DHT22;38468;48.114;-1.684;2024-01-25T03:16:54;13.40;84.40
52575;DHT22;38468;48.114;-1.684;2024-01-25T03:18:54;13.30;84.50
52575;DHT22;38468;48.114;-1.684;2024-01-25T03:20:55;13.30;84.50
52575;DHT22;38468;48.114;-1.684;2024-01-25T03:22:56;13.30;84.50
52575;DHT22;38468;48.114;-1.684;2024-01-25T03:24:56;13.40;84.50
52575;DHT22;38468;48.114;-1.684;2024-01-25T03:26:57;13.40;84.50
52575;DHT22;38468;48.114;-1.684;2024-01-25T03:28:57;13.40;84.40
52575;DHT22;38468;48.114;-1.684;2024-01-25T03:30:58;13.40;84.50
52575;DHT22;38468;48.114;-1.684;2024-01-25T03:32:59;13.40;84.40
52575;DHT22;38468;48.114;-1.684;2024-01-25T03:34:59;13.30;84.40
52575;DHT22;38468;48.114;-1.684;2024-01-25T03:37:00;13.30;84.40
52575;DHT22;38468;48.114;-1.684;2024-01-25T03:39:01;13.30;84.30
52575;DHT22;38468;48.114;-1.684;2024-01-25T03:41:01;13.30;84.30
52575;DHT22;38468;48.114;-1.684;2024-01-25T03:43:02;13.20;84.30
52575;DHT22;38468;48.114;-1.684;2024-01-25T03:45:03;13.20;84.40
52575;DHT22;38468;48.114;-1.684;2024-01-25T03:47:03;13.20;84.40
52575;DHT22;38468;48.114;-1.684;2024-01-25T03:49:04;13.10;84.40
52575;DHT22;38468;48.114;-1.684;2024-01-25T03:51:05;13.10;84.40
52575;DHT22;38468;48.114;-1.684;2024-01-25T03:53:05;13.10;84.40
52575;DHT22;38468;48.114;-1.684;2024-01-25T03:55:07;13.10;84.30
52575;DHT22;38468;48.114;-1.684;2024-01-25T03:57:07;13.10;84.30
52575;DHT22;38468;48.114;-1.684;2024-01-25T03:59:08;13.10;84.20
52575;DHT22;38468;48.114;-1.684;2024-01-25T04:01:12;13.00;84.20
52575;DHT22;38468;48.114;-1.684;2024-01-25T04:03:13;13.00;84.20
52575;DHT22;38468;48.114;-1.684;2024-01-25T04:05:13;13.00;84.20
52575;DHT22;38468;48.114;-1.684;2024-01-25T04:07:15;13.00;84.20
52575;DHT22;38468;48.114;-1.684;2024-01-25T04:09:16;13.00;84.20
52575;DHT22;38468;48.114;-1.684;2024-01-25T04:11:16;13.00;84.30
52575;DHT22;38468;48.114;-1.684;2024-01-25T04:13:17;13.00;84.30
52575;DHT22;38468;48.114;-1.684;2024-01-25T04:15:18;13.00;84.20
52575;DHT22;38468;48.114;-1.684;2024-01-25T04:17:18;13.00;84.20
52575;DHT22;38468;48.114;-1.684;2024-01-25T04:19:19;13.00;84.20
52575;DHT22;38468;48.114;-1.684;2024-01-25T04:21:19;13.00;84.20
52575;DHT22;38468;48.114;-1.684;2024-01-25T04:23:20;13.00;84.20
52575;DHT22;38468;48.114;-1.684;2024-01-25T04:25:20;13.00;84.20
52575;DHT22;38468;48.114;-1.684;2024-01-25T04:27:21;13.00;84.10
52575;DHT22;38468;48.114;-1.684;2024-01-25T04:29:22;13.00;84.20
52575;DHT22;38468;48.114;-1.684;2024-01-25T04:31:22;13.00;84.20
52575;DHT22;38468;48.114;-1.684;2024-01-25T04:33:23;13.00;84.20
52575;DHT22;38468;48.114;-1.684;2024-01-25T04:35:24;12.90;84.20
52575;DHT22;38468;48.114;-1.684;2024-01-25T04:37:24;13.00;84.20
52575;DHT22;38468;48.114;-1.684;2024-01-25T04:39:25;12.90;84.20
52575;DHT22;38468;48.114;-1.684;2024-01-25T04:41:25;12.90;84.20
52575;DHT22;38468;48.114;-1.684;2024-01-25T04:43:26;12.90;84.20
52575;DHT22;38468;48.114;-1.684;2024-01-25T04:45:27;12.90;84.10
52575;DHT22;38468;48.114;-1.684;2024-01-25T04:47:27;12.90;84.20
52575;DHT22;38468;48.114;-1.684;2024-01-25T04:49:28;12.90;84.20
52575;DHT22;38468;48.114;-1.684;2024-01-25T04:51:29;12.90;84.20
52575;DHT22;38468;48.114;-1.684;2024-01-25T04:53:29;12.90;84.20
52575;DHT22;38468;48.114;-1.684;2024-01-25T04:55:30;12.90;84.20
52575;DHT22;38468;48.114;-1.684;2024-01-25T04:57:31;12.90;84.20
52575;DHT22;38468;48.114;-1.684;2024-01-25T04:59:34;12.90;84.10
52575;DHT22;38468;48.114;-1.684;2024-01-25T05:01:35;12.90;84.10
52575;DHT22;38468;48.114;-1.684;2024-01-25T05:03:35;12.80;84.00
52575;DHT22;38468;48.114;-1.684;2024-01-25T05:05:36;12.80;84.00
52575;DHT22;38468;48.114;-1.684;2024-01-25T05:07:37;12.70;84.00
52575;DHT22;38468;48.114;-1.684;2024-01-25T05:09:37;12.70;84.00
52575;DHT22;38468;48.114;-1.684;2024-01-25T05:11:41;12.70;84.00
52575;DHT22;38468;48.114;-1.684;2024-01-25T05:13:41;12.70;84.10
52575;DHT22;38468;48.114;-1.684;2024-01-25T05:15:42;12.70;84.10
52575;DHT22;38468;48.114;-1.684;2024-01-25T05:17:43;12.70;84.10
52575;DHT22;38468;48.114;-1.684;2024-01-25T05:19:43;12.70;84.20
52575;DHT22;38468;48.114;-1.684;2024-01-25T05:21:44;12.70;84.20
52575;DHT22;38468;48.114;-1.684;2024-01-25T05:23:45;12.70;84.20
52575;DHT22;38468;48.114;-1.684;2024-01-25T05:25:45;12.70;84.30
52575;DHT22;38468;48.114;-1.684;2024-01-25T05:27:46;12.70;84.30
52575;DHT22;38468;48.114;-1.684;2024-01-25T05:29:47;12.70;84.30
52575;DHT22;38468;48.114;-1.684;2024-01-25T05:31:47;12.80;84.40
52575;DHT22;38468;48.114;-1.684;2024-01-25T05:33:50;12.80;84.40
52575;DHT22;38468;48.114;-1.684;2024-01-25T05:35:50;12.80;84.30
52575;DHT22;38468;48.114;-1.684;2024-01-25T05:37:51;12.80;84.40
52575;DHT22;38468;48.114;-1.684;2024-01-25T05:39:52;12.80;84.40
52575;DHT22;38468;48.114;-1.684;2024-01-25T05:41:52;12.80;84.40
52575;DHT22;38468;48.114;-1.684;2024-01-25T05:43:53;12.80;84.40
52575;DHT22;38468;48.114;-1.684;2024-01-25T05:45:55;12.80;84.40
52575;DHT22;38468;48.114;-1.684;2024-01-25T05:47:55;12.80;84.40
52575;DHT22;38468;48.114;-1.684;2024-01-25T05:49:56;12.90;84.40
52575;DHT22;38468;48.114;-1.684;2024-01-25T05:51:57;12.80;84.40
52575;DHT22;38468;48.114;-1.684;2024-01-25T05:53:58;12.90;84.40
52575;DHT22;38468;48.114;-1.684;2024-01-25T05:55:58;12.90;84.40
52575;DHT22;38468;48.114;-1.684;2024-01-25T05:57:59;12.90;84.40
52575;DHT22;38468;48.114;-1.684;2024-01-25T05:59:59;12.90;84.40
52575;DHT22;38468;48.114;-1.684;2024-01-25T06:02:00;12.90;84.30
52575;DHT22;38468;48.114;-1.684;2024-01-25T06:04:01;12.80;84.30
52575;DHT22;38468;48.114;-1.684;2024-01-25T06:06:01;12.90;84.30
52575;DHT22;38468;48.114;-1.684;2024-01-25T06:08:02;12.90;84.30
52575;DHT22;38468;48.114;-1.684;2024-01-25T06:10:03;12.90;84.30
52575;DHT22;38468;48.114;-1.684;2024-01-25T06:12:04;12.90;84.40
52575;DHT22;38468;48.114;-1.684;2024-01-25T06:14:05;12.90;84.40
52575;DHT22;38468;48.114;-1.684;2024-01-25T06:16:06;12.90;84.40
52575;DHT22;38468;48.114;-1.684;2024-01-25T06:18:07;12.90;84.40
52575;DHT22;38468;48.114;-1.684;2024-01-25T06:20:08;12.90;84.30
52575;DHT22;38468;48.114;-1.684;2024-01-25T06:22:10;12.90;84.30
52575;DHT22;38468;48.114;-1.684;2024-01-25T06:24:12;12.90;84.30
52575;DHT22;38468;48.114;-1.684;2024-01-25T06:26:13;12.80;84.30
52575;DHT22;38468;48.114;-1.684;2024-01-25T06:28:14;12.90;84.30
52575;DHT22;38468;48.114;-1.684;2024-01-25T06:30:14;12.80;84.30
52575;DHT22;38468;48.114;-1.684;2024-01-25T06:32:15;12.80;84.20
52575;DHT22;38468;48.114;-1.684;2024-01-25T06:34:16;12.70;84.20
52575;DHT22;38468;48.114;-1.684;2024-01-25T06:36:16;12.80;84.30
52575;DHT22;38468;48.114;-1.684;2024-01-25T06:38:17;12.70;84.30
52575;DHT22;38468;48.114;-1.684;2024-01-25T06:40:19;12.70;84.30
52575;DHT22;38468;48.114;-1.684;2024-01-25T06:42:19;12.70;84.30
52575;DHT22;38468;48.114;-1.684;2024-01-25T06:44:20;12.80;84.30
52575;DHT22;38468;48.114;-1.684;2024-01-25T06:46:20;12.70;84.30
52575;DHT22;38468;48.114;-1.684;2024-01-25T06:48:21;12.70;84.30
52575;DHT22;38468;48.114;-1.684;2024-01-25T06:50:21;12.70;84.30
52575;DHT22;38468;48.114;-1.684;2024-01-25T06:52:22;12.70;84.30
52575;DHT22;38468;48.114;-1.684;2024-01-25T06:54:23;12.70;84.30
52575;DHT22;38468;48.114;-1.684;2024-01-25T06:56:23;12.70;84.30
52575;DHT22;38468;48.114;-1.684;2024-01-25T06:58:24;12.70;84.30
52575;DHT22;38468;48.114;-1.684;2024-01-25T07:00:24;12.60;84.30
52575;DHT22;38468;48.114;-1.684;2024-01-25T07:02:25;12.70;84.40
52575;DHT22;38468;48.114;-1.684;2024-01-25T07:04:26;12.70;84.40
52575;DHT22;38468;48.114;-1.684;2024-01-25T07:06:26;12.70;84.40
52575;DHT22;38468;48.114;-1.684;2024-01-25T07:08:27;12.70;84.40
52575;DHT22;38468;48.114;-1.684;2024-01-25T07:10:27;12.70;84.40
52575;DHT22;38468;48.114;-1.684;2024-01-25T07:12:29;12.70;84.40
52575;DHT22;38468;48.114;-1.684;2024-01-25T07:14:29;12.70;84.40
52575;DHT22;38468;48.114;-1.684;2024-01-25T07:16:30;12.70;84.40
52575;DHT22;38468;48.114;-1.684;2024-01-25T07:18:31;12.70;84.40
52575;DHT22;38468;48.114;-1.684;2024-01-25T07:20:31;12.70;84.40
52575;DHT22;38468;48.114;-1.684;2024-01-25T07:22:32;12.80;84.50
52575;DHT22;38468;48.114;-1.684;2024-01-25T07:24:32;12.70;84.40
52575;DHT22;38468;48.114;-1.684;2024-01-25T07:26:33;12.70;84.40
52575;DHT22;38468;48.114;-1.684;2024-01-25T07:28:34;12.80;84.40
52575;DHT22;38468;48.114;-1.684;2024-01-25T07:30:34;12.70;84.40
52575;DHT22;38468;48.114;-1.684;2024-01-25T07:32:36;12.70;84.40
52575;DHT22;38468;48.114;-1.684;2024-01-25T07:34:36;12.70;84.50
52575;DHT22;38468;48.114;-1.684;2024-01-25T07:36:37;12.80;84.50
52575;DHT22;38468;48.114;-1.684;2024-01-25T07:38:37;12.80;84.50
52575;DHT22;38468;48.114;-1.684;2024-01-25T07:40:38;12.80;84.50
52575;DHT22;38468;48.114;-1.684;2024-01-25T07:42:39;12.70;84.40
52575;DHT22;38468;48.114;-1.684;2024-01-25T07:44:39;12.70;84.40
52575;DHT22;38468;48.114;-1.684;2024-01-25T07:46:40;12.70;84.40
52575;DHT22;38468;48.114;-1.684;2024-01-25T07:48:41;12.70;84.40
52575;DHT22;38468;48.114;-1.684;2024-01-25T07:50:41;12.70;84.50
52575;DHT22;38468;48.114;-1.684;2024-01-25T07:52:42;12.70;84.40
52575;DHT22;38468;48.114;-1.684;2024-01-25T07:54:43;12.70;84.40
52575;DHT22;38468;48.114;-1.684;2024-01-25T07:56:44;12.70;84.50
52575;DHT22;38468;48.114;-1.684;2024-01-25T07:58:45;12.70;84.50
52575;DHT22;38468;48.114;-1.684;2024-01-25T08:00:46;12.70;84.50
52575;DHT22;38468;48.114;-1.684;2024-01-25T08:02:46;12.70;84.50
52575;DHT22;38468;48.114;-1.684;2024-01-25T08:04:47;12.70;84.50
52575;DHT22;38468;48.114;-1.684;2024-01-25T08:06:47;12.60;84.50
52575;DHT22;38468;48.114;-1.684;2024-01-25T08:08:48;12.70;84.50
52575;DHT22;38468;48.114;-1.684;2024-01-25T08:10:49;12.70;84.50
52575;DHT22;38468;48.114;-1.684;2024-01-25T08:12:49;12.70;84.50
52575;DHT22;38468;48.114;-1.684;2024-01-25T08:14:50;12.70;84.50
52575;DHT22;38468;48.114;-1.684;2024-01-25T08:16:51;12.70;84.50
52575;DHT22;38468;48.114;-1.684;2024-01-25T08:18:51;12.60;84.60
52575;DHT22;38468;48.114;-1.684;2024-01-25T08:20:52;12.60;84.60
52575;DHT22;38468;48.114;-1.684;2024-01-25T08:22:53;12.60;84.60
52575;DHT22;38468;48.114;-1.684;2024-01-25T08:24:54;12.60;84.60
52575;DHT22;38468;48.114;-1.684;2024-01-25T08:26:54;12.70;84.60
52575;DHT22;38468;48.114;-1.684;2024-01-25T08:28:55;12.70;84.70
52575;DHT22;38468;48.114;-1.684;2024-01-25T08:30:55;12.70;84.70
52575;DHT22;38468;48.114;-1.684;2024-01-25T08:32:56;12.70;84.70
52575;DHT22;38468;48.114;-1.684;2024-01-25T08:34:57;12.70;84.70
52575;DHT22;38468;48.114;-1.684;2024-01-25T08:36:57;12.70;84.70
52575;DHT22;38468;48.114;-1.684;2024-01-25T08:38:58;12.70;84.70
52575;DHT22;38468;48.114;-1.684;2024-01-25T08:40:58;12.70;84.70
52575;DHT22;38468;48.114;-1.684;2024-01-25T08:42:59;12.70;84.70
52575;DHT22;38468;48.114;-1.684;2024-01-25T08:45:00;12.80;84.70
52575;DHT22;38468;48.114;-1.684;2024-01-25T08:47:00;12.80;84.70
52575;DHT22;38468;48.114;-1.684;2024-01-25T08:49:01;12.80;84.70
52575;DHT22;38468;48.114;-1.684;2024-01-25T08:51:02;12.80;84.70
52575;DHT22;38468;48.114;-1.684;2024-01-25T08:53:02;12.80;84.70
52575;DHT22;38468;48.114;-1.684;2024-01-25T08:55:04;12.80;84.70
52575;DHT22;38468;48.114;-1.684;2024-01-25T08:57:05;12.80;84.70
52575;DHT22;38468;48.114;-1.684;2024-01-25T08:59:06;12.90;84.70
52575;DHT22;38468;48.114;-1.684;2024-01-25T09:01:07;12.90;84.70
52575;DHT22;38468;48.114;-1.684;2024-01-25T09:03:08;12.90;84.70
52575;DHT22;38468;48.114;-1.684;2024-01-25T09:05:08;12.90;84.70
52575;DHT22;38468;48.114;-1.684;2024-01-25T09:07:09;12.90;84.70
52575;DHT22;38468;48.114;-1.684;2024-01-25T09:09:10;12.90;84.70
52575;DHT22;38468;48.114;-1.684;2024-01-25T09:11:11;12.90;84.70
52575;DHT22;38468;48.114;-1.684;2024-01-25T09:13:12;13.00;84.70
52575;DHT22;38468;48.114;-1.684;2024-01-25T09:15:12;13.00;84.70
52575;DHT22;38468;48.114;-1.684;2024-01-25T09:17:13;13.00;84.60
52575;DHT22;38468;48.114;-1.684;2024-01-25T09:19:17;13.00;84.60
52575;DHT22;38468;48.114;-1.684;2024-01-25T09:21:21;13.00;84.50
52575;DHT22;38468;48.114;-1.684;2024-01-25T09:23:23;12.90;84.50
52575;DHT22;38468;48.114;-1.684;2024-01-25T09:25:25;12.90;84.40
52575;DHT22;38468;48.114;-1.684;2024-01-25T09:27:26;13.00;84.40
52575;DHT22;38468;48.114;-1.684;2024-01-25T09:29:27;12.90;84.50
52575;DHT22;38468;48.114;-1.684;2024-01-25T09:31:29;12.90;84.50
52575;DHT22;38468;48.114;-1.684;2024-01-25T09:33:29;12.90;84.50
52575;DHT22;38468;48.114;-1.684;2024-01-25T09:35:36;12.90;84.30
52575;DHT22;38468;48.114;-1.684;2024-01-25T09:37:37;12.90;84.30
52575;DHT22;38468;48.114;-1.684;2024-01-25T09:39:38;12.90;84.20
52575;DHT22;38468;48.114;-1.684;2024-01-25T09:41:39;12.90;84.30
52575;DHT22;38468;48.114;-1.684;2024-01-25T09:43:42;12.90;84.30
52575;DHT22;38468;48.114;-1.684;2024-01-25T09:45:44;12.90;84.10
52575;DHT22;38468;48.114;-1.684;2024-01-25T09:47:45;12.80;84.10
52575;DHT22;38468;48.114;-1.684;2024-01-25T09:49:46;12.80;83.90
52575;DHT22;38468;48.114;-1.684;2024-01-25T09:51:47;12.70;83.90
52575;DHT22;38468;48.114;-1.684;2024-01-25T09:53:54;12.70;83.80
52575;DHT22;38468;48.114;-1.684;2024-01-25T09:56:05;12.70;84.00
52575;DHT22;38468;48.114;-1.684;2024-01-25T09:58:07;12.70;84.00
52575;DHT22;38468;48.114;-1.684;2024-01-25T10:00:09;12.80;84.10
52575;DHT22;38468;48.114;-1.684;2024-01-25T10:02:12;12.70;83.90
52575;DHT22;38468;48.114;-1.684;2024-01-25T10:04:12;12.70;83.90
52575;DHT22;38468;48.114;-1.684;2024-01-25T10:06:14;12.70;83.90
52575;DHT22;38468;48.114;-1.684;2024-01-25T10:08:15;12.70;83.90
52575;DHT22;38468;48.114;-1.684;2024-01-25T10:10:16;12.70;84.00
52575;DHT22;38468;48.114;-1.684;2024-01-25T10:12:16;12.70;84.00
52575;DHT22;38468;48.114;-1.684;2024-01-25T10:14:17;12.80;84.10
52575;DHT22;38468;48.114;-1.684;2024-01-25T10:16:18;12.80;84.10
52575;DHT22;38468;48.114;-1.684;2024-01-25T10:18:21;12.80;84.00
52575;DHT22;38468;48.114;-1.684;2024-01-25T10:20:23;12.80;84.10
52575;DHT22;38468;48.114;-1.684;2024-01-25T10:22:26;12.90;84.10
52575;DHT22;38468;48.114;-1.684;2024-01-25T10:24:27;12.90;84.10
52575;DHT22;38468;48.114;-1.684;2024-01-25T10:26:28;12.90;84.10
52575;DHT22;38468;48.114;-1.684;2024-01-25T10:28:29;12.90;84.10
52575;DHT22;38468;48.114;-1.684;2024-01-25T10:30:35;12.90;84.00
52575;DHT22;38468;48.114;-1.684;2024-01-25T10:32:37;13.00;84.10
52575;DHT22;38468;48.114;-1.684;2024-01-25T10:34:38;13.00;84.10
52575;DHT22;38468;48.114;-1.684;2024-01-25T10:36:39;13.00;84.10
52575;DHT22;38468;48.114;-1.684;2024-01-25T10:38:41;13.00;84.10
52575;DHT22;38468;48.114;-1.684;2024-01-25T10:40:43;13.00;84.10
52575;DHT22;38468;48.114;-1.684;2024-01-25T10:42:44;13.00;84.10
52575;DHT22;38468;48.114;-1.684;2024-01-25T10:44:45;13.00;84.10
52575;DHT22;38468;48.114;-1.684;2024-01-25T10:46:49;13.00;84.10
52575;DHT22;38468;48.114;-1.684;2024-01-25T10:48:50;13.00;84.20
52575;DHT22;38468;48.114;-1.684;2024-01-25T10:50:55;13.00;84.20
52575;DHT22;38468;48.114;-1.684;2024-01-25T10:52:57;13.00;84.30
52575;DHT22;38468;48.114;-1.684;2024-01-25T10:54:59;13.00;84.40
52575;DHT22;38468;48.114;-1.684;2024-01-25T10:57:00;13.00;84.50
52575;DHT22;38468;48.114;-1.684;2024-01-25T10:59:00;13.10;84.50
52575;DHT22;38468;48.114;-1.684;2024-01-25T11:01:01;13.00;84.50
52575;DHT22;38468;48.114;-1.684;2024-01-25T11:03:04;13.10;84.50
52575;DHT22;38468;48.114;-1.684;2024-01-25T11:05:13;13.10;84.60
52575;DHT22;38468;48.114;-1.684;2024-01-25T11:07:14;13.10;84.60
52575;DHT22;38468;48.114;-1.684;2024-01-25T11:09:19;13.00;84.60
52575;DHT22;38468;48.114;-1.684;2024-01-25T11:11:21;13.00;84.70
52575;DHT22;38468;48.114;-1.684;2024-01-25T11:13:24;13.10;84.80
52575;DHT22;38468;48.114;-1.684;2024-01-25T11:15:36;13.00;84.80
52575;DHT22;38468;48.114;-1.684;2024-01-25T11:17:37;13.10;84.80
52575;DHT22;38468;48.114;-1.684;2024-01-25T11:19:40;13.10;84.90
52575;DHT22;38468;48.114;-1.684;2024-01-25T11:21:50;13.10;84.90
52575;DHT22;38468;48.114;-1.684;2024-01-25T11:24:02;13.10;84.90
52575;DHT22;38468;48.114;-1.684;2024-01-25T11:26:03;13.20;84.80
52575;DHT22;38468;48.114;-1.684;2024-01-25T11:28:08;13.20;84.80
52575;DHT22;38468;48.114;-1.684;2024-01-25T11:30:09;13.20;84.90
52575;DHT22;38468;48.114;-1.684;2024-01-25T11:32:12;13.20;84.80
52575;DHT22;38468;48.114;-1.684;2024-01-25T11:34:13;13.20;85.00
52575;DHT22;38468;48.114;-1.684;2024-01-25T11:36:15;13.20;85.00
52575;DHT22;38468;48.114;-1.684;2024-01-25T11:38:16;13.30;85.00
52575;DHT22;38468;48.114;-1.684;2024-01-25T11:40:17;13.30;84.90
52575;DHT22;38468;48.114;-1.684;2024-01-25T11:42:18;13.30;84.90
52575;DHT22;38468;48.114;-1.684;2024-01-25T11:44:18;13.40;84.80
52575;DHT22;38468;48.114;-1.684;2024-01-25T11:46:19;13.40;84.80
52575;DHT22;38468;48.114;-1.684;2024-01-25T11:48:20;13.40;84.70
52575;DHT22;38468;48.114;-1.684;2024-01-25T11:50:20;13.40;84.70
52575;DHT22;38468;48.114;-1.684;2024-01-25T11:52:23;13.40;84.80
52575;DHT22;38468;48.114;-1.684;2024-01-25T11:54:23;13.40;84.70
52575;DHT22;38468;48.114;-1.684;2024-01-25T11:56:28;13.40;84.80
52575;DHT22;38468;48.114;-1.684;2024-01-25T11:58:28;13.40;84.70
52575;DHT22;38468;48.114;-1.684;2024-01-25T12:00:29;13.40;84.70
52575;DHT22;38468;48.114;-1.684;2024-01-25T12:02:30;13.40;84.70
52575;DHT22;38468;48.114;-1.684;2024-01-25T12:04:32;13.40;84.80
52575;DHT22;38468;48.114;-1.684;2024-01-25T12:06:32;13.50;84.70
52575;DHT22;38468;48.114;-1.684;2024-01-25T12:08:33;13.50;84.80
52575;DHT22;38468;48.114;-1.684;2024-01-25T12:10:34;13.50;84.80
52575;DHT22;38468;48.114;-1.684;2024-01-25T12:12:35;13.50;84.70
52575;DHT22;38468;48.114;-1.684;2024-01-25T12:14:36;13.50;84.70
52575;DHT22;38468;48.114;-1.684;2024-01-25T12:16:37;13.50;84.70
52575;DHT22;38468;48.114;-1.684;2024-01-25T12:18:40;13.50;84.80
52575;DHT22;38468;48.114;-1.684;2024-01-25T12:20:40;13.50;84.80
52575;DHT22;38468;48.114;-1.684;2024-01-25T12:22:41;13.50;84.80
52575;DHT22;38468;48.114;-1.684;2024-01-25T12:24:42;13.50;84.70
52575;DHT22;38468;48.114;-1.684;2024-01-25T12:26:44;13.50;84.80
52575;DHT22;38468;48.114;-1.684;2024-01-25T12:28:46;13.50;84.80
52575;DHT22;38468;48.114;-1.684;2024-01-25T12:30:49;13.50;84.80
52575;DHT22;38468;48.114;-1.684;2024-01-25T12:32:50;13.60;84.80